createdAt,value
2022-08-26T00:01:48.194Z,75.01
2022-08-26T00:07:16.464Z,75.13
2022-08-26T00:12:45.155Z,75.37
2022-08-26T00:17:57.946Z,75.42
2022-08-26T00:23:09.177Z,75.73
2022-08-26T00:28:28.338Z,75.74
2022-08-26T00:33:44.131Z,75.85
2022-08-26T00:38:56.591Z,76.10
2022-08-26T00:44:07.179Z,76.13
2022-08-26T00:49:37.414Z,76.32
2022-08-26T00:54:54.308Z,76.24
2022-08-26T01:00:12.684Z,76.43
2022-08-26T01:05:22.456Z,76.58
2022-08-26T01:10:39.856Z,76.58
2022-08-26T01:15:58.937Z,76.67
2022-08-26T01:21:17.192Z,76.71
2022-08-26T01:26:32.819Z,76.97
2022-08-26T01:31:46.835Z,76.79
2022-08-26T01:37:08.593Z,76.99
2022-08-26T01:42:33.420Z,77.11
2022-08-26T01:47:58.395Z,77.19
2022-08-26T01:53:14.284Z,77.37
2022-08-26T01:58:47.505Z,77.45
2022-08-26T02:04:10.288Z,77.38
2022-08-26T02:09:27.592Z,77.47
2022-08-26T02:14:43.622Z,77.45
2022-08-26T02:20:02.022Z,77.58
2022-08-26T02:25:26.733Z,77.73
2022-08-26T02:30:38.258Z,77.54
2022-08-26T02:35:46.762Z,77.61
2022-08-26T02:41:06.234Z,77.80
2022-08-26T02:46:21.545Z,77.93
2022-08-26T02:51:50.140Z,77.86
2022-08-26T02:56:59.208Z,78.27
2022-08-26T03:02:08.174Z,78.08
2022-08-26T03:07:20.015Z,78.09
2022-08-26T03:12:32.949Z,78.17
2022-08-26T03:17:52.436Z,78.37
2022-08-26T03:23:03.918Z,78.28
2022-08-26T03:28:21.817Z,78.31
2022-08-26T03:33:34.120Z,78.30
2022-08-26T03:38:47.585Z,78.39
2022-08-26T03:44:01.520Z,78.38
2022-08-26T03:49:30.016Z,78.41
2022-08-26T03:54:38.289Z,78.30
2022-08-26T03:59:48.006Z,78.51
2022-08-26T04:05:17.998Z,78.60
2022-08-26T04:10:29.667Z,78.71
2022-08-26T04:15:39.578Z,78.81
2022-08-26T04:20:54.738Z,78.88
2022-08-26T04:26:07.866Z,78.90
2022-08-26T04:31:21.198Z,78.97
2022-08-26T04:36:29.204Z,78.98
2022-08-26T04:41:40.082Z,79.02
2022-08-26T04:46:52.486Z,78.96
2022-08-26T04:52:03.352Z,79.15
2022-08-26T04:57:15.271Z,79.12
2022-08-26T05:02:25.838Z,79.04
2022-08-26T05:07:38.415Z,79.13
2022-08-26T05:12:55.984Z,79.07
2022-08-26T05:18:14.026Z,79.05
2022-08-26T05:23:32.202Z,79.24
2022-08-26T05:28:42.748Z,79.38
2022-08-26T05:33:53.313Z,79.19
2022-08-26T05:39:10.498Z,78.85
2022-08-26T05:44:21.445Z,78.30
2022-08-26T05:49:33.136Z,77.90
2022-08-26T05:55:01.737Z,77.54
2022-08-26T06:00:18.471Z,77.24
2022-08-26T06:05:42.749Z,76.93
2022-08-26T06:10:57.427Z,76.34
2022-08-26T06:16:09.071Z,75.94
2022-08-26T06:21:24.524Z,75.30
2022-08-26T06:26:50.294Z,74.88
2022-08-26T06:32:07.235Z,74.02
2022-08-26T06:37:19.147Z,73.95
2022-08-26T06:42:28.570Z,73.47
2022-08-26T06:47:39.044Z,73.18
2022-08-26T06:52:53.207Z,72.41
2022-08-26T06:58:07.813Z,71.91
2022-08-26T07:03:23.176Z,70.95
2022-08-26T07:08:33.888Z,70.25
2022-08-26T07:13:56.231Z,70.11
2022-08-26T07:19:11.214Z,69.46
2022-08-26T07:24:19.663Z,68.30
2022-08-26T07:29:31.997Z,67.28
2022-08-26T07:34:44.409Z,66.70
2022-08-26T07:39:55.310Z,66.49
2022-08-26T07:45:05.588Z,65.79
2022-08-26T07:50:13.569Z,64.48
2022-08-26T07:55:25.599Z,63.66
2022-08-26T08:00:43.066Z,63.21
2022-08-26T08:05:50.729Z,62.85
2022-08-26T08:11:01.773Z,61.83
2022-08-26T08:16:12.554Z,60.81
2022-08-26T08:21:23.515Z,60.28
2022-08-26T08:26:35.587Z,59.50
2022-08-26T08:32:00.012Z,58.74
2022-08-26T08:37:10.959Z,57.65
2022-08-26T08:42:34.722Z,56.89
2022-08-26T08:47:47.053Z,56.09
2022-08-26T08:53:05.172Z,55.64
2022-08-26T08:58:21.326Z,54.55
2022-08-26T09:04:02.645Z,54.37
2022-08-26T09:09:39.322Z,53.28
2022-08-26T09:15:03.741Z,53.15
2022-08-26T09:20:26.757Z,52.88
2022-08-26T09:25:34.518Z,52.42
2022-08-26T09:30:42.169Z,52.03
2022-08-26T09:35:55.277Z,51.82
2022-08-26T09:41:20.437Z,51.39
2022-08-26T09:46:37.120Z,51.09
2022-08-26T09:51:44.885Z,50.66
2022-08-26T09:57:20.916Z,49.63
2022-08-26T10:02:47.848Z,48.96
2022-08-26T10:08:01.658Z,48.58
2022-08-26T10:13:17.053Z,47.92
2022-08-26T10:18:34.255Z,47.72
2022-08-26T10:24:35.405Z,47.36
2022-08-26T10:29:48.393Z,46.94
2022-08-26T10:34:59.010Z,46.56
2022-08-26T10:40:20.196Z,46.46
2022-08-26T10:45:38.570Z,46.04
2022-08-26T10:50:48.799Z,45.78
2022-08-26T10:56:02.732Z,45.65
2022-08-26T11:01:40.746Z,45.33
2022-08-26T11:07:26.617Z,44.96
2022-08-26T11:12:58.262Z,44.59
2022-08-26T11:18:40.097Z,44.49
2022-08-26T11:23:52.892Z,44.14
2022-08-26T11:29:03.091Z,43.74
2022-08-26T11:34:16.122Z,43.11
2022-08-26T11:39:30.226Z,42.82
2022-08-26T11:44:49.408Z,42.55
2022-08-26T11:50:12.148Z,42.34
2022-08-26T11:55:20.896Z,41.98
2022-08-26T12:00:36.641Z,41.72
2022-08-26T12:05:50.852Z,41.37
2022-08-26T12:12:43.361Z,40.90
2022-08-26T12:17:34.873Z,40.72
2022-08-26T12:23:06.413Z,40.59
2022-08-26T12:28:39.383Z,40.35
2022-08-26T12:34:04.577Z,39.88
2022-08-26T12:39:29.450Z,39.55
2022-08-26T12:44:54.349Z,39.39
2022-08-26T12:50:08.756Z,38.91
2022-08-26T12:55:41.497Z,38.98
2022-08-26T13:00:56.803Z,38.59
2022-08-26T13:06:30.117Z,38.29
2022-08-26T13:11:59.852Z,37.97
2022-08-26T13:17:10.514Z,37.80
2022-08-26T13:22:23.199Z,37.47
2022-08-26T13:27:30.860Z,37.25
2022-08-26T13:32:38.799Z,36.98
2022-08-26T13:37:48.832Z,36.73
2022-08-26T13:42:56.422Z,36.50
2022-08-26T13:48:05.016Z,36.38
2022-08-26T13:53:15.961Z,36.10
2022-08-26T13:58:33.208Z,36.19
2022-08-26T14:04:03.091Z,35.79
2022-08-26T14:09:11.470Z,35.77
2022-08-26T14:14:23.407Z,35.45
2022-08-26T14:19:32.117Z,35.37
2022-08-26T14:24:42.218Z,35.43
2022-08-26T14:29:52.448Z,35.13
2022-08-26T14:35:12.256Z,34.96
2022-08-26T14:40:24.810Z,35.04
2022-08-26T14:45:32.367Z,34.54
2022-08-26T14:50:43.214Z,34.61
2022-08-26T14:55:50.836Z,34.61
2022-08-26T15:01:04.563Z,34.40
2022-08-26T15:06:16.698Z,34.34
2022-08-26T15:11:27.702Z,34.11
2022-08-26T15:16:36.187Z,33.83
2022-08-26T15:21:45.709Z,33.93
2022-08-26T15:26:56.782Z,33.45
2022-08-26T15:32:04.911Z,33.27
2022-08-26T15:37:12.934Z,33.17
2022-08-26T15:42:21.177Z,32.93
2022-08-26T15:47:28.888Z,33.05
2022-08-26T15:52:42.542Z,33.02
2022-08-26T15:57:50.276Z,32.89
2022-08-26T16:02:57.774Z,32.83
2022-08-26T16:08:11.278Z,32.80
2022-08-26T16:13:22.198Z,32.79
2022-08-26T16:18:39.276Z,32.70
2022-08-26T16:23:54.382Z,32.80
2022-08-26T16:29:02.241Z,32.87
2022-08-26T16:34:10.023Z,32.88
2022-08-26T16:39:26.312Z,32.82
2022-08-26T16:44:44.647Z,32.84
2022-08-26T16:49:54.376Z,32.74
2022-08-26T16:55:12.831Z,32.87
2022-08-26T17:00:38.260Z,32.89
2022-08-26T17:05:44.763Z,32.72
2022-08-26T17:11:02.302Z,33.07
2022-08-26T17:16:27.137Z,33.17
2022-08-26T17:21:38.489Z,33.25
2022-08-26T17:27:11.900Z,33.25
2022-08-26T17:32:20.096Z,33.63
2022-08-26T17:37:29.462Z,33.82
2022-08-26T17:42:38.053Z,34.38
2022-08-26T17:47:57.783Z,34.22
2022-08-26T17:53:05.350Z,34.71
2022-08-26T17:58:14.600Z,34.98
2022-08-26T18:03:24.616Z,35.32
2022-08-26T18:08:32.764Z,35.72
2022-08-26T18:13:47.120Z,36.05
2022-08-26T18:18:58.884Z,36.49
2022-08-26T18:24:13.986Z,36.79
2022-08-26T18:29:22.606Z,37.06
2022-08-26T18:34:31.794Z,37.49
2022-08-26T18:39:39.644Z,37.74
2022-08-26T18:44:48.683Z,37.97
2022-08-26T18:49:56.520Z,38.37
2022-08-26T18:55:08.287Z,38.85
2022-08-26T19:00:18.474Z,39.19
2022-08-26T19:05:26.762Z,39.58
2022-08-26T19:17:22.659Z,40.30
2022-08-26T19:23:32.013Z,40.83
2022-08-26T19:35:06.908Z,41.63
2022-08-26T19:41:55.022Z,42.02
2022-08-26T19:47:24.641Z,42.52
2022-08-26T19:52:43.646Z,42.76
2022-08-26T19:58:25.071Z,43.04
2022-08-26T20:03:58.174Z,43.33
2022-08-26T20:16:03.748Z,43.85
2022-08-26T20:21:36.478Z,43.96
2022-08-26T20:27:52.607Z,44.05
2022-08-26T20:48:18.624Z,44.62
2022-08-26T20:53:43.438Z,44.85
2022-08-26T20:59:18.041Z,45.00
2022-08-26T21:05:20.151Z,45.21
2022-08-26T21:18:03.122Z,45.73
2022-08-26T21:24:20.880Z,45.99
2022-08-26T21:30:00.489Z,46.29
2022-08-26T21:36:38.698Z,46.60
2022-08-26T21:42:23.721Z,46.99
2022-08-26T21:49:21.680Z,47.38
2022-08-26T21:55:15.752Z,47.66
2022-08-26T22:01:04.832Z,47.85
2022-08-26T22:07:30.929Z,47.90
2022-08-26T22:13:13.435Z,48.27
2022-08-26T22:19:01.434Z,48.52
2022-08-26T22:24:32.857Z,48.81
2022-08-26T22:30:34.123Z,48.96
2022-08-26T22:35:54.361Z,49.03
2022-08-26T22:41:27.020Z,49.28
2022-08-26T22:47:33.171Z,49.46
2022-08-26T22:52:58.436Z,49.72
2022-08-26T22:58:46.650Z,49.86
2022-08-26T23:04:29.807Z,49.98
2022-08-26T23:10:15.882Z,50.07
2022-08-26T23:15:48.316Z,50.33
2022-08-26T23:21:51.851Z,50.37
2022-08-26T23:33:03.358Z,50.60
2022-08-26T23:38:31.416Z,50.62
2022-08-26T23:44:06.120Z,50.75
2022-08-26T23:49:51.006Z,50.82
2022-08-26T23:55:24.710Z,51.07
